Time;durP1;ratioP1;P1;durP2;ratioP2;P2;SDS_P1;SDS_P2;PMS_P1;PMS_P2;Temp;Humidity;BMP_temperature;BMP_pressure;BME280_temperature;BME280_humidity;BME280_pressure;Samples;Min_cycle;Max_cycle;Signal;HPM_P1;HPM_P2
2023/05/13 00:02:09;;;;;;;2.60;2.40;;;;;;;12.07;100.00;100269.28;5005026;28;20402;-76
2023/05/13 00:04:35;;;;;;;3.80;2.53;;;;;;;12.03;100.00;100273.66;5023641;28;20204;-76
2023/05/13 00:07:00;;;;;;;2.30;2.20;;;;;;;12.00;100.00;100273.72;5004398;28;20773;-77
2023/05/13 00:09:26;;;;;;;3.43;2.10;;;;;;;11.99;100.00;100272.00;5023717;28;20183;-76
2023/05/13 00:11:52;;;;;;;2.77;2.57;;;;;;;11.97;100.00;100283.25;5022996;28;20256;-77
2023/05/13 00:14:17;;;;;;;2.40;2.20;;;;;;;11.92;100.00;100285.91;5021999;28;20207;-76
2023/05/13 00:16:42;;;;;;;2.23;2.13;;;;;;;11.89;100.00;100286.78;5023169;28;20195;-77
2023/05/13 00:19:08;;;;;;;2.90;2.70;;;;;;;11.87;100.00;100280.78;5022120;28;20192;-77
2023/05/13 00:21:33;;;;;;;2.90;2.60;;;;;;;11.83;100.00;100292.09;5022534;28;20185;-76
2023/05/13 00:23:58;;;;;;;2.70;2.50;;;;;;;11.82;100.00;100286.91;5017492;28;20191;-76
2023/05/13 00:26:24;;;;;;;3.07;2.77;;;;;;;11.79;100.00;100289.56;5002709;28;20179;-77
2023/05/13 00:28:49;;;;;;;2.93;2.43;;;;;;;11.73;100.00;100290.47;5021789;28;20192;-77
2023/05/13 00:31:15;;;;;;;3.57;2.60;;;;;;;11.72;100.00;100292.22;5018875;28;20321;-76
2023/05/13 00:33:40;;;;;;;3.20;2.90;;;;;;;11.69;100.00;100288.81;5022705;28;20406;-77
2023/05/13 00:36:08;;;;;;;3.47;3.27;;;;;;;11.68;100.00;100284.53;5019395;28;20207;-76
2023/05/13 00:38:34;;;;;;;2.83;2.63;;;;;;;11.63;100.00;100284.59;5020735;28;21140;-76
2023/05/13 00:41:00;;;;;;;3.13;2.90;;;;;;;11.60;100.00;100289.81;5020835;28;20195;-76
2023/05/13 00:43:25;;;;;;;3.70;3.40;;;;;;;11.58;100.00;100291.56;5019312;28;20181;-76
2023/05/13 00:45:50;;;;;;;3.40;3.10;;;;;;;11.55;100.00;100291.59;5005262;28;20603;-76
2023/05/13 00:48:16;;;;;;;3.20;2.90;;;;;;;11.52;100.00;100289.91;5023142;28;20176;-76
2023/05/13 00:50:43;;;;;;;3.13;2.93;;;;;;;11.48;100.00;100288.22;5021360;28;20194;-76
2023/05/13 00:53:09;;;;;;;3.30;2.93;;;;;;;11.47;100.00;100286.50;5003281;28;20655;-77
2023/05/13 00:55:34;;;;;;;3.30;3.10;;;;;;;11.45;100.00;100283.06;5020921;28;20216;-77
2023/05/13 00:58:00;;;;;;;4.97;3.40;;;;;;;11.42;100.00;100293.47;5022840;28;21975;-77
2023/05/13 01:00:28;;;;;;;3.50;3.30;;;;;;;11.38;100.00;100291.81;5002329;28;20192;-76
2023/05/13 01:03:04;;;;;;;3.77;3.47;;;;;;;11.36;100.00;100294.41;5022235;28;20207;-78
2023/05/13 01:05:58;;;;;;;3.70;3.50;;;;;;;11.33;100.00;100293.59;5023256;28;20215;-77
2023/05/13 01:08:35;;;;;;;3.67;3.40;;;;;;;11.32;100.00;100297.94;5018062;28;20183;-77
2023/05/13 01:11:10;;;;;;;3.53;3.33;;;;;;;11.29;100.00;100298.81;5022221;28;20201;-76
2023/05/13 01:13:41;;;;;;;3.90;3.60;;;;;;;11.27;100.00;100297.13;5000847;28;21067;-76
2023/05/13 01:16:29;;;;;;;3.80;3.60;;;;;;;11.24;100.00;100299.75;5021779;28;20205;-76
2023/05/13 01:19:02;;;;;;;3.73;3.40;;;;;;;11.23;100.00;100296.31;5022348;28;20294;-76
2023/05/13 01:21:28;;;;;;;3.67;3.47;;;;;;;11.23;100.00;100303.19;5021012;28;20647;-76
2023/05/13 01:23:54;;;;;;;4.07;3.77;;;;;;;11.23;100.00;100306.66;5022052;28;20216;-76
2023/05/13 01:26:22;;;;;;;4.23;3.93;;;;;;;11.20;100.00;100303.22;5018209;28;20179;-77
2023/05/13 01:28:47;;;;;;;3.80;3.50;;;;;;;11.19;100.00;100306.72;5014631;28;20184;-76
2023/05/13 01:31:14;;;;;;;4.33;3.93;;;;;;;11.22;100.00;100304.94;5022106;28;20409;-76
2023/05/13 01:33:40;;;;;;;4.00;3.70;;;;;;;11.23;100.00;100305.78;5018846;28;20192;-76
2023/05/13 01:36:07;;;;;;;4.20;3.90;;;;;;;11.23;100.00;100298.91;5027732;28;20283;-77
2023/05/13 01:38:34;;;;;;;4.70;4.30;;;;;;;11.22;100.00;100306.66;5021294;28;20217;-76
2023/05/13 01:41:00;;;;;;;3.93;3.63;;;;;;;11.17;100.00;100304.13;5025039;28;20726;-77
2023/05/13 01:43:25;;;;;;;4.07;3.77;;;;;;;11.14;100.00;100311.94;5025245;28;20195;-78
2023/05/13 01:45:51;;;;;;;3.90;3.60;;;;;;;11.09;100.00;100314.56;5024027;28;20365;-76
2023/05/13 01:48:17;;;;;;;4.20;3.90;;;;;;;11.04;100.00;100307.72;5027557;28;20183;-77
2023/05/13 01:50:43;;;;;;;4.07;3.77;;;;;;;11.01;100.00;100302.56;5023301;28;20223;-76
2023/05/13 01:53:08;;;;;;;4.37;3.97;;;;;;;10.98;100.00;100306.06;5026214;28;20234;-77
2023/05/13 01:55:33;;;;;;;4.10;3.80;;;;;;;10.95;100.00;100304.38;5023307;28;20204;-77
2023/05/13 01:57:59;;;;;;;4.10;3.80;;;;;;;10.94;100.00;100304.38;5023428;28;20218;-76
2023/05/13 02:00:24;;;;;;;4.03;3.73;;;;;;;10.90;100.00;100305.28;5021092;28;20196;-77
2023/05/13 02:02:49;;;;;;;4.50;4.10;;;;;;;10.86;100.00;100301.03;5025057;28;20248;-77
2023/05/13 02:05:15;;;;;;;4.17;3.87;;;;;;;10.81;100.00;100306.25;5025251;28;20223;-76
2023/05/13 02:07:41;;;;;;;3.93;3.63;;;;;;;10.77;100.00;100309.72;5026600;28;20175;-76
2023/05/13 02:10:06;;;;;;;4.27;3.87;;;;;;;10.75;100.00;100311.47;5026114;28;20188;-75
2023/05/13 02:12:32;;;;;;;4.90;4.47;;;;;;;10.73;100.00;100310.63;5022040;28;20217;-76
2023/05/13 02:14:57;;;;;;;3.87;3.57;;;;;;;10.72;100.00;100311.50;5023477;28;20212;-76
2023/05/13 02:17:23;;;;;;;4.57;4.27;;;;;;;10.70;100.00;100308.06;5026100;28;20203;-77
2023/05/13 02:19:48;;;;;;;4.53;4.13;;;;;;;10.66;100.00;100315.00;5024417;28;20270;-77
2023/05/13 02:22:14;;;;;;;4.47;4.17;;;;;;;10.65;100.00;100308.09;5021991;28;20204;-76
2023/05/13 02:24:40;;;;;;;4.70;4.23;;;;;;;10.65;100.00;100313.28;5024167;28;20303;-77
2023/05/13 02:27:06;;;;;;;4.53;4.13;;;;;;;10.62;100.00;100311.59;5021801;28;20176;-75
2023/05/13 02:29:32;;;;;;;4.70;4.27;;;;;;;10.61;100.00;100314.16;5018854;28;20179;-76
2023/05/13 02:31:58;;;;;;;4.37;4.07;;;;;;;10.60;100.00;100315.03;5023380;28;20674;-76
2023/05/13 02:34:23;;;;;;;4.60;4.30;;;;;;;10.59;100.00;100303.84;5022573;28;20242;-77
2023/05/13 02:36:48;;;;;;;4.57;4.27;;;;;;;10.59;100.00;100316.78;5024965;28;20198;-76
2023/05/13 02:39:14;;;;;;;4.70;4.40;;;;;;;10.58;100.00;100312.47;5024532;28;20242;-77
2023/05/13 02:41:39;;;;;;;5.17;4.03;;;;;;;10.56;100.00;100319.38;5023088;28;20667;-77
2023/05/13 02:44:04;;;;;;;4.33;4.00;;;;;;;10.52;100.00;100315.97;5015923;28;20187;-76
2023/05/13 02:46:30;;;;;;;4.60;4.30;;;;;;;10.48;100.00;100314.28;5006515;28;20709;-77
2023/05/13 02:48:56;;;;;;;4.60;4.30;;;;;;;10.46;100.00;100313.44;5024641;28;20198;-76
2023/05/13 02:51:21;;;;;;;5.00;4.57;;;;;;;10.45;100.00;100310.88;5022114;28;20183;-76
2023/05/13 02:53:47;;;;;;;4.60;4.30;;;;;;;10.44;100.00;100311.72;5024342;28;20188;-76
2023/05/13 02:56:15;;;;;;;4.53;4.20;;;;;;;10.40;100.00;100305.72;5024319;28;20207;-77
2023/05/13 02:58:40;;;;;;;4.43;4.13;;;;;;;10.37;100.00;100311.75;5022360;28;20215;-76
2023/05/13 03:01:06;;;;;;;4.70;4.27;;;;;;;10.35;100.00;100308.34;5024442;28;20188;-76
2023/05/13 03:03:31;;;;;;;4.70;4.30;;;;;;;10.34;100.00;100306.63;5022302;28;20294;-77
2023/05/13 03:05:57;;;;;;;4.87;4.53;;;;;;;10.33;100.00;100304.03;5035540;28;20279;-77
2023/05/13 03:08:22;;;;;;;4.73;4.33;;;;;;;10.34;100.00;100306.63;5046983;28;20184;-78
2023/05/13 03:10:47;;;;;;;5.00;4.60;;;;;;;10.30;100.00;100304.03;5043559;28;20243;-77
2023/05/13 03:13:13;;;;;;;4.63;4.23;;;;;;;10.28;100.00;100304.06;5025802;28;20200;-78
2023/05/13 03:15:38;;;;;;;5.00;4.60;;;;;;;10.26;100.00;100310.97;5004844;28;20207;-76
2023/05/13 03:18:03;;;;;;;4.57;4.27;;;;;;;10.26;100.00;100303.22;5022774;28;20230;-76
2023/05/13 03:20:30;;;;;;;5.00;4.60;;;;;;;10.26;100.00;100315.28;5021666;28;20611;-77
2023/05/13 03:22:55;;;;;;;5.50;5.00;;;;;;;10.28;100.00;100318.75;5025283;28;20327;-76
2023/05/13 03:25:21;;;;;;;5.47;5.03;;;;;;;10.23;100.00;100313.56;5022751;28;20223;-76
2023/05/13 03:27:46;;;;;;;5.30;5.00;;;;;;;10.21;100.00;100317.88;5021007;28;20233;-77
2023/05/13 03:30:12;;;;;;;4.80;4.50;;;;;;;10.18;100.00;100323.09;5017605;28;20205;-77
2023/05/13 03:32:38;;;;;;;5.53;5.03;;;;;;;10.15;100.00;100316.22;5023531;28;20195;-76
2023/05/13 03:35:03;;;;;;;5.80;5.30;;;;;;;10.14;100.00;100327.41;5019666;28;20696;-76
2023/05/13 03:37:29;;;;;;;5.37;4.77;;;;;;;10.11;100.00;100321.41;5021859;28;20717;-75
2023/05/13 03:39:54;;;;;;;5.00;4.70;;;;;;;10.07;100.00;100329.19;5022836;28;20184;-76
2023/05/13 03:42:19;;;;;;;5.23;4.70;;;;;;;10.05;100.00;100324.91;5024534;28;20195;-76
2023/05/13 03:44:45;;;;;;;5.27;4.87;;;;;;;10.02;100.00;100323.22;5021179;28;20230;-77
2023/05/13 03:47:10;;;;;;;4.93;4.63;;;;;;;10.00;100.00;100318.88;5022228;28;20222;-76
2023/05/13 03:49:36;;;;;;;5.10;4.70;;;;;;;9.99;100.00;100330.09;5022562;28;20215;-76
2023/05/13 03:52:01;;;;;;;5.47;4.80;;;;;;;9.95;100.00;100329.28;5020927;28;20193;-76
2023/05/13 03:54:27;;;;;;;5.67;5.13;;;;;;;9.96;100.00;100332.72;5022620;28;20581;-76
2023/05/13 03:56:52;;;;;;;4.97;4.57;;;;;;;9.96;100.00;100330.97;5020783;28;20279;-76
2023/05/13 03:59:17;;;;;;;5.40;5.00;;;;;;;9.97;100.00;100332.72;5021104;28;20274;-77
2023/05/13 04:01:43;;;;;;;5.17;4.57;;;;;;;9.96;100.00;100338.75;5020947;28;20186;-76
2023/05/13 04:04:08;;;;;;;4.90;4.50;;;;;;;9.96;100.00;100337.91;5021330;28;20201;-76
2023/05/13 04:06:33;;;;;;;5.83;5.20;;;;;;;9.94;100.00;100339.63;5019405;28;20612;-75
2023/05/13 04:09:00;;;;;;;5.03;4.63;;;;;;;10.00;100.00;100340.44;5021654;28;20190;-77
2023/05/13 04:11:25;;;;;;;5.77;5.27;;;;;;;10.03;100.00;100340.44;5021436;28;20193;-76
2023/05/13 04:13:50;;;;;;;5.20;4.80;;;;;;;10.22;100.00;100340.31;5017837;28;20340;-75
2023/05/13 04:16:16;;;;;;;5.30;4.90;;;;;;;10.57;100.00;100344.41;5016523;28;20294;-77
2023/05/13 04:18:41;;;;;;;4.60;4.30;;;;;;;10.94;100.00;100344.09;5021126;28;20299;-76
2023/05/13 04:21:07;;;;;;;4.83;4.43;;;;;;;11.23;100.00;100337.75;5021689;28;20285;-76
2023/05/13 04:23:33;;;;;;;4.47;4.07;;;;;;;11.45;100.00;100342.66;5019187;28;20624;-76
2023/05/13 04:25:58;;;;;;;5.13;4.70;;;;;;;11.76;100.00;100352.66;5012406;28;20361;-76
2023/05/13 04:28:23;;;;;;;4.10;3.80;;;;;;;12.15;100.00;100341.81;5021608;28;20223;-76
2023/05/13 04:30:48;;;;;;;4.33;3.93;;;;;;;12.45;100.00;100345.69;5019581;28;20682;-76
2023/05/13 04:33:14;;;;;;;3.87;3.57;;;;;;;12.51;100.00;100349.91;5016450;28;20634;-77
2023/05/13 04:35:39;;;;;;;3.63;3.43;;;;;;;12.62;100.00;100354.94;5021401;28;20216;-78
2023/05/13 04:38:05;;;;;;;3.50;3.20;;;;;;;12.38;100.00;100363.97;5019663;28;20584;-76
2023/05/13 04:40:30;;;;;;;3.73;3.43;;;;;;;12.02;100.00;100359.28;5020206;28;20206;-77
2023/05/13 04:42:56;;;;;;;3.77;3.43;;;;;;;11.78;100.00;100373.41;5020787;28;20192;-78
2023/05/13 04:45:22;;;;;;;3.57;3.30;;;;;;;11.63;100.00;100367.53;5023365;28;20644;-77
2023/05/13 04:47:47;;;;;;;4.50;4.07;;;;;;;11.50;100.00;100364.22;4997564;28;20950;-76
2023/05/13 04:50:13;;;;;;;3.97;3.67;;;;;;;11.49;100.00;100367.69;5005169;28;20204;-77
2023/05/13 04:52:39;;;;;;;3.73;3.43;;;;;;;11.53;100.00;100365.91;5023744;28;20286;-76
2023/05/13 04:55:04;;;;;;;3.60;3.40;;;;;;;11.51;100.00;100367.66;5023103;28;20226;-76
2023/05/13 04:57:30;;;;;;;4.57;3.60;;;;;;;11.55;100.00;100372.81;5022477;28;20196;-76
2023/05/13 04:59:55;;;;;;;3.93;3.47;;;;;;;11.56;100.00;100373.66;5007206;28;20191;-76
2023/05/13 05:02:20;;;;;;;3.80;3.50;;;;;;;11.58;100.00;100366.72;5021937;28;20203;-75
2023/05/13 05:04:48;;;;;;;4.27;3.83;;;;;;;11.70;100.00;100374.34;5022199;28;20203;-77
2023/05/13 05:07:13;;;;;;;4.23;3.83;;;;;;;11.82;100.00;100373.34;5022934;28;20211;-76
2023/05/13 05:09:38;;;;;;;3.50;3.23;;;;;;;12.06;100.00;100367.88;5021219;28;20191;-75
2023/05/13 05:12:04;;;;;;;3.63;3.33;;;;;;;12.17;100.00;100379.84;5023630;28;20640;-75
2023/05/13 05:14:30;;;;;;;3.30;3.10;;;;;;;12.42;100.00;100376.00;5002042;28;20209;-77
2023/05/13 05:16:55;;;;;;;3.20;3.00;;;;;;;12.77;100.00;100374.59;5025916;28;20178;-77
2023/05/13 05:19:22;;;;;;;3.10;2.90;;;;;;;13.10;100.00;100380.94;4998930;28;20192;-77
2023/05/13 05:21:50;;;;;;;3.20;3.00;;;;;;;13.96;100.00;100382.78;5019172;28;20188;-76
2023/05/13 05:24:15;;;;;;;3.20;2.90;;;;;;;15.08;100.00;100383.63;5007473;28;20186;-74
2023/05/13 05:26:40;;;;;;;3.87;3.30;;;;;;;16.10;97.84;100381.69;5018861;28;20223;-75
2023/05/13 05:29:06;;;;;;;3.83;3.17;;;;;;;16.88;92.01;100383.56;5025328;28;20702;-77
2023/05/13 05:31:31;;;;;;;3.37;3.07;;;;;;;17.36;87.40;100386.31;5025256;28;20278;-76
2023/05/13 05:33:57;;;;;;;3.57;3.03;;;;;;;17.72;84.76;100398.13;5023047;28;20180;-79
2023/05/13 05:36:23;;;;;;;2.97;2.77;;;;;;;17.46;83.11;100390.31;5021538;28;20249;-77
2023/05/13 05:38:48;;;;;;;2.70;2.50;;;;;;;17.64;82.29;100398.41;5021524;28;20211;-77
2023/05/13 05:41:14;;;;;;;4.17;2.93;;;;;;;18.13;80.95;100390.47;5002911;28;20213;-76
2023/05/13 05:43:39;;;;;;;3.30;2.70;;;;;;;18.45;80.48;100382.28;5019042;28;20188;-76
2023/05/13 05:46:05;;;;;;;2.40;2.17;;;;;;;18.80;78.75;100393.06;5021256;28;20195;-76
2023/05/13 05:48:30;;;;;;;3.63;2.97;;;;;;;19.36;77.80;100390.75;5009567;28;20177;-76
2023/05/13 05:50:55;;;;;;;3.07;2.77;;;;;;;19.96;75.00;100393.31;5026441;28;20186;-77
2023/05/13 05:53:21;;;;;;;3.67;2.80;;;;;;;20.11;72.85;100394.38;5025228;28;20193;-77
2023/05/13 05:55:46;;;;;;;2.97;2.63;;;;;;;20.21;72.26;100392.16;5028188;28;20279;-76
2023/05/13 05:58:15;;;;;;;4.20;2.60;;;;;;;19.84;72.59;100397.31;5005538;28;20676;-77
2023/05/13 06:00:41;;;;;;;2.50;2.30;;;;;;;20.33;72.40;100393.34;5024874;28;20180;-76
2023/05/13 06:03:06;;;;;;;3.30;2.33;;;;;;;20.06;71.90;100385.84;5027017;28;20175;-77
2023/05/13 06:05:32;;;;;;;2.53;2.10;;;;;;;19.87;72.35;100386.72;5024462;28;20218;-78
2023/05/13 06:07:57;;;;;;;2.30;2.10;;;;;;;20.53;70.42;100384.47;5008421;28;20709;-77
2023/05/13 06:10:22;;;;;;;2.47;2.27;;;;;;;19.53;70.80;100384.75;5026328;28;20184;-77
2023/05/13 06:12:49;;;;;;;2.50;2.10;;;;;;;19.55;70.63;100396.88;5026366;28;20191;-75
2023/05/13 06:15:15;;;;;;;5.00;2.73;;;;;;;19.26;72.26;100385.88;5026488;28;20214;-76
2023/05/13 06:17:40;;;;;;;2.43;2.20;;;;;;;19.08;71.67;100390.16;5022872;28;20248;-76
2023/05/13 06:20:06;;;;;;;3.77;2.10;;;;;;;19.23;72.20;100399.13;5024255;28;20187;-76
2023/05/13 06:22:31;;;;;;;3.63;2.47;;;;;;;20.10;70.73;100383.00;5022672;28;20225;-76
2023/05/13 06:24:57;;;;;;;2.37;2.17;;;;;;;20.22;69.76;100385.97;5022220;28;20206;-76
2023/05/13 06:27:22;;;;;;;3.30;2.30;;;;;;;20.33;68.63;100385.47;5021285;28;20191;-77
2023/05/13 06:29:47;;;;;;;4.23;2.37;;;;;;;20.63;68.49;100396.28;5023513;28;20589;-76
2023/05/13 06:32:13;;;;;;;2.53;2.27;;;;;;;20.44;68.04;100398.09;5006246;28;20191;-77
2023/05/13 06:34:39;;;;;;;3.80;2.50;;;;;;;20.64;68.37;100395.34;5018899;28;20211;-76
2023/05/13 06:37:04;;;;;;;3.57;2.30;;;;;;;21.29;67.91;100394.72;5031410;28;20883;-76
2023/05/13 06:39:30;;;;;;;3.60;2.73;;;;;;;21.05;67.56;100393.34;5027127;28;20183;-76
2023/05/13 06:41:55;;;;;;;2.17;1.97;;;;;;;21.73;66.97;100403.84;5025793;28;20179;-76
2023/05/13 06:44:20;;;;;;;2.53;2.30;;;;;;;20.91;66.21;100415.09;5025761;28;20322;-76
2023/05/13 06:46:46;;;;;;;3.57;2.10;;;;;;;20.78;67.02;100399.09;5024058;28;20191;-77
2023/05/13 06:49:11;;;;;;;2.53;2.30;;;;;;;20.85;66.08;100401.34;5020874;28;20180;-78
2023/05/13 06:51:36;;;;;;;5.20;2.73;;;;;;;20.57;66.39;100401.81;5016664;28;20186;-76
2023/05/13 06:54:02;;;;;;;2.83;2.40;;;;;;;20.73;67.97;100408.94;5019954;28;20188;-77
2023/05/13 06:56:29;;;;;;;3.00;2.33;;;;;;;21.04;66.92;100396.91;5018466;28;20656;-76
2023/05/13 06:58:54;;;;;;;3.60;2.60;;;;;;;20.54;66.65;100396.69;5021716;28;20253;-77
2023/05/13 07:01:19;;;;;;;2.33;2.13;;;;;;;21.02;66.57;100403.09;5022573;28;20183;-76
2023/05/13 07:03:45;;;;;;;3.10;2.80;;;;;;;20.92;66.99;100406.28;5025353;28;20683;-74
2023/05/13 07:06:11;;;;;;;2.80;2.57;;;;;;;20.66;67.61;100403.16;5024018;28;20203;-76
2023/05/13 07:08:36;;;;;;;2.80;2.10;;;;;;;20.71;68.31;100403.78;5021574;28;20183;-76
2023/05/13 07:11:02;;;;;;;2.57;2.37;;;;;;;21.09;66.81;100398.38;5024893;28;20686;-76
2023/05/13 07:13:28;;;;;;;7.17;2.50;;;;;;;20.71;67.73;100399.34;5024183;28;20195;-76
2023/05/13 07:15:54;;;;;;;3.23;2.60;;;;;;;21.09;67.16;100401.00;5026394;28;20245;-76
2023/05/13 07:18:19;;;;;;;3.20;2.43;;;;;;;21.26;66.15;100397.50;5024148;28;20223;-76
2023/05/13 07:20:45;;;;;;;4.93;2.30;;;;;;;20.86;65.99;100404.81;5021843;28;20556;-76
2023/05/13 07:23:10;;;;;;;2.70;2.50;;;;;;;20.62;68.04;100405.09;5025052;28;20187;-76
2023/05/13 07:25:35;;;;;;;2.40;2.20;;;;;;;19.99;68.66;100410.69;5008109;28;20195;-76
2023/05/13 07:28:03;;;;;;;4.13;2.77;;;;;;;19.89;69.23;100407.66;5022565;28;20199;-74
2023/05/13 07:30:28;;;;;;;2.30;2.20;;;;;;;19.88;69.32;100412.06;5022050;28;20205;-74
2023/05/13 07:32:53;;;;;;;2.60;2.40;;;;;;;19.57;69.55;100418.66;5025473;28;20426;-76
2023/05/13 07:35:19;;;;;;;3.17;2.50;;;;;;;19.45;70.67;100408.72;5024567;28;20211;-76
2023/05/13 07:37:44;;;;;;;2.60;2.40;;;;;;;19.64;69.34;100413.97;5003255;28;20591;-76
2023/05/13 07:40:10;;;;;;;2.67;2.47;;;;;;;19.37;70.43;100422.16;5006483;28;20191;-76
2023/05/13 07:42:36;;;;;;;3.07;2.70;;;;;;;18.68;71.90;100415.41;5021896;28;20189;-76
2023/05/13 07:45:01;;;;;;;5.37;3.10;;;;;;;18.47;72.72;100406.63;5025687;28;20223;-77
2023/05/13 07:47:27;;;;;;;3.37;3.10;;;;;;;17.72;74.86;100413.81;5024783;28;20272;-75
2023/05/13 07:49:53;;;;;;;2.67;2.47;;;;;;;17.56;76.14;100408.28;5023879;28;20232;-75
2023/05/13 07:52:19;;;;;;;3.87;2.70;;;;;;;17.47;77.43;100407.72;5002558;28;20655;-76
2023/05/13 07:54:44;;;;;;;2.60;2.40;;;;;;;17.18;78.79;100413.94;5018805;28;20738;-76
2023/05/13 07:57:09;;;;;;;2.30;2.20;;;;;;;17.25;79.31;100410.22;4999360;28;20192;-75
2023/05/13 07:59:34;;;;;;;2.73;2.33;;;;;;;17.49;78.82;100415.50;5013672;28;20188;-76
2023/05/13 08:02:00;;;;;;;3.47;2.43;;;;;;;17.44;78.79;100413.03;5019652;28;20192;-76
2023/05/13 08:04:25;;;;;;;2.53;2.33;;;;;;;17.42;78.07;100411.41;5019882;28;20296;-77
2023/05/13 08:06:51;;;;;;;2.53;2.33;;;;;;;17.62;78.60;100410.69;5020240;28;20200;-76
2023/05/13 08:09:17;;;;;;;2.67;2.20;;;;;;;17.87;78.33;100415.88;5020393;28;20191;-76
2023/05/13 08:11:42;;;;;;;2.33;2.13;;;;;;;18.09;77.90;100420.31;5015744;28;20188;-76
2023/05/13 08:14:07;;;;;;;2.53;2.30;;;;;;;18.20;77.07;100423.41;5016436;28;21000;-74
2023/05/13 08:16:36;;;;;;;2.90;2.47;;;;;;;18.17;75.56;100420.88;5017199;28;20194;-77
2023/05/13 08:19:02;;;;;;;2.50;2.30;;;;;;;18.00;76.10;100424.13;5017534;28;20210;-73
2023/05/13 08:21:27;;;;;;;4.07;2.53;;;;;;;17.71;76.06;100423.41;5018318;28;20194;-77
2023/05/13 08:23:52;;;;;;;2.90;2.20;;;;;;;17.42;76.15;100414.03;5013551;28;20193;-76
2023/05/13 08:26:18;;;;;;;3.13;2.83;;;;;;;16.98;78.14;100418.13;5014398;28;20703;-76
2023/05/13 08:28:43;;;;;;;2.77;2.53;;;;;;;16.74;79.82;100422.38;5021567;28;20327;-76
2023/05/13 08:31:12;;;;;;;2.90;2.60;;;;;;;16.60;79.67;100420.19;5017717;28;20201;-77
2023/05/13 08:33:38;;;;;;;2.80;2.60;;;;;;;16.56;80.91;100421.22;5020514;28;20185;-75
2023/05/13 08:36:04;;;;;;;2.50;2.30;;;;;;;16.44;80.90;100425.91;5019426;28;20706;-75
2023/05/13 08:38:31;;;;;;;3.43;2.40;;;;;;;16.41;81.84;100422.53;5023025;28;20207;-75
2023/05/13 08:40:57;;;;;;;2.57;2.37;;;;;;;16.47;82.04;100427.56;5020283;28;20212;-76
2023/05/13 08:43:23;;;;;;;3.00;2.60;;;;;;;16.52;81.92;100420.44;5024644;28;20727;-77
2023/05/13 08:45:52;;;;;;;3.07;2.77;;;;;;;16.56;81.74;100416.81;5024016;28;20780;-77
2023/05/13 08:48:18;;;;;;;2.70;2.50;;;;;;;16.60;80.89;100421.06;5023988;28;20640;-76
2023/05/13 08:50:44;;;;;;;3.03;2.77;;;;;;;16.44;81.38;100417.22;5029019;28;20828;-77
2023/05/13 08:53:11;;;;;;;2.97;2.30;;;;;;;16.48;81.69;100429.28;5029645;28;20187;-77
2023/05/13 08:55:40;;;;;;;3.10;2.80;;;;;;;16.32;81.65;100428.88;5008185;28;20207;-76
2023/05/13 08:58:06;;;;;;;3.17;2.30;;;;;;;16.54;81.68;100425.63;5031610;28;20218;-77
2023/05/13 09:00:33;;;;;;;3.40;2.70;;;;;;;16.77;80.61;100423.13;5026222;28;20205;-77
2023/05/13 09:02:59;;;;;;;3.03;2.40;;;;;;;16.92;79.76;100436.59;5027853;28;20189;-77
2023/05/13 09:05:24;;;;;;;2.67;2.47;;;;;;;16.90;79.56;100435.78;5009217;28;20274;-77
2023/05/13 09:07:50;;;;;;;2.90;2.70;;;;;;;16.88;78.36;100429.75;5030305;28;20647;-76
2023/05/13 09:10:16;;;;;;;3.13;2.70;;;;;;;17.04;79.57;100435.38;5027104;28;20667;-77
2023/05/13 09:12:53;;;;;;;2.60;2.40;;;;;;;17.04;77.95;100428.34;5010437;28;20197;-78
2023/05/13 09:15:24;;;;;;;3.20;2.90;;;;;;;16.92;78.24;100428.75;5026541;28;20217;-77
2023/05/13 09:17:52;;;;;;;4.40;2.80;;;;;;;16.84;78.70;100449.91;5026478;28;20682;-76
2023/05/13 09:20:19;;;;;;;3.10;2.80;;;;;;;17.09;79.47;100429.97;5003946;28;20201;-76
2023/05/13 09:22:44;;;;;;;2.60;2.40;;;;;;;17.37;78.86;100433.34;5007138;28;20205;-77
2023/05/13 09:25:12;;;;;;;2.93;2.73;;;;;;;17.59;78.11;100435.22;5023129;28;20217;-77
2023/05/13 09:27:43;;;;;;;3.07;2.57;;;;;;;17.81;77.81;100443.13;5024542;28;20206;-76
2023/05/13 09:30:09;;;;;;;2.73;2.53;;;;;;;17.89;77.33;100427.16;5023387;28;20247;-77
2023/05/13 09:32:35;;;;;;;3.47;2.90;;;;;;;18.08;75.96;100429.94;5024892;28;20240;-77
2023/05/13 09:35:16;;;;;;;3.80;2.40;;;;;;;17.90;75.78;100441.94;5008948;28;20629;-78
2023/05/13 09:37:44;;;;;;;3.30;2.40;;;;;;;17.88;76.25;100430.66;5021085;28;20206;-77
2023/05/13 09:40:14;;;;;;;4.57;2.50;;;;;;;17.93;76.67;100438.34;5023425;28;20186;-76
2023/05/13 09:42:45;;;;;;;3.43;3.03;;;;;;;17.99;76.69;100430.31;5020527;28;20185;-77
2023/05/13 09:45:15;;;;;;;2.80;2.40;;;;;;;18.13;75.31;100429.78;5020016;28;20709;-76
2023/05/13 09:47:41;;;;;;;2.77;2.23;;;;;;;18.24;74.80;100437.22;5019487;28;20184;-77
2023/05/13 09:50:08;;;;;;;2.57;2.37;;;;;;;18.06;75.84;100421.28;5019386;28;20194;-77
2023/05/13 09:52:35;;;;;;;4.83;2.37;;;;;;;18.16;76.01;100426.16;5020944;28;20271;-76
2023/05/13 09:55:03;;;;;;;2.80;2.60;;;;;;;18.37;76.35;100425.34;5019805;28;20277;-78
2023/05/13 09:57:32;;;;;;;2.60;2.40;;;;;;;18.51;75.22;100431.81;5022353;28;20747;-77
2023/05/13 10:00:05;;;;;;;2.27;2.07;;;;;;;18.77;74.95;100432.50;5014352;28;20197;-78
2023/05/13 10:02:30;;;;;;;2.70;2.50;;;;;;;18.62;73.77;100431.38;5000166;28;20329;-75
2023/05/13 10:04:57;;;;;;;2.80;2.27;;;;;;;18.63;74.15;100420.81;5019622;28;20215;-77
2023/05/13 10:07:24;;;;;;;2.80;2.30;;;;;;;18.94;73.13;100424.84;5020887;28;20195;-76
2023/05/13 10:09:56;;;;;;;2.50;2.20;;;;;;;18.88;73.61;100425.91;5024004;28;20175;-77
2023/05/13 10:12:23;;;;;;;3.07;2.00;;;;;;;18.98;73.28;100425.59;5026388;28;20191;-77
2023/05/13 10:14:51;;;;;;;2.20;2.00;;;;;;;18.88;73.91;100422.47;5023067;28;20210;-75
2023/05/13 10:17:19;;;;;;;3.27;2.60;;;;;;;18.63;73.73;100419.97;5026182;28;20221;-77
2023/05/13 10:19:44;;;;;;;2.80;2.10;;;;;;;18.69;74.29;100433.69;5025396;28;20175;-77
2023/05/13 10:22:12;;;;;;;3.07;2.03;;;;;;;18.83;73.33;100427.88;5026444;28;20229;-75
2023/05/13 10:24:38;;;;;;;2.30;2.10;;;;;;;19.00;73.13;100424.59;5024992;28;20324;-75
2023/05/13 10:27:05;;;;;;;3.63;1.77;;;;;;;19.17;73.06;100425.66;5020461;28;20600;-75
2023/05/13 10:29:30;;;;;;;2.00;1.90;;;;;;;18.86;73.09;100424.28;5019711;28;20191;-76
2023/05/13 10:31:57;;;;;;;2.40;2.20;;;;;;;19.06;73.19;100428.72;5022999;28;20234;-78
2023/05/13 10:34:24;;;;;;;2.37;2.13;;;;;;;18.90;72.74;100425.88;5002369;28;20208;-76
2023/05/13 10:37:02;;;;;;;2.40;2.20;;;;;;;18.76;72.55;100422.94;5021824;28;20211;-76
2023/05/13 10:39:52;;;;;;;2.27;2.07;;;;;;;18.72;73.20;100425.72;5022684;28;20270;-76
2023/05/13 10:42:37;;;;;;;2.17;2.00;;;;;;;18.68;73.33;100420.66;5017052;28;20203;-75
2023/05/13 10:45:02;;;;;;;2.57;2.07;;;;;;;19.13;73.22;100421.44;5023047;28;20210;-75
2023/05/13 10:47:31;;;;;;;2.20;1.63;;;;;;;19.42;73.10;100414.94;5024964;28;20199;-74
2023/05/13 10:49:57;;;;;;;2.30;1.73;;;;;;;19.37;72.74;100426.53;5003935;28;20215;-75
2023/05/13 10:52:22;;;;;;;1.60;1.50;;;;;;;19.49;72.29;100421.63;5015371;28;20231;-75
2023/05/13 10:55:01;;;;;;;1.93;1.60;;;;;;;19.12;72.49;100417.97;5015919;28;20234;-76
2023/05/13 10:57:36;;;;;;;3.40;1.80;;;;;;;18.97;72.36;100423.88;5023165;28;20353;-75
2023/05/13 11:00:16;;;;;;;2.17;1.60;;;;;;;18.65;73.50;100420.78;5009184;28;20186;-77
2023/05/13 11:02:41;;;;;;;1.87;1.70;;;;;;;18.41;74.06;100419.09;5020653;28;20951;-76
2023/05/13 11:05:07;;;;;;;3.37;2.13;;;;;;;18.19;74.63;100426.06;5021384;28;20309;-75
2023/05/13 11:07:38;;;;;;;2.67;1.97;;;;;;;18.01;74.87;100420.59;5020478;28;20568;-75
2023/05/13 11:10:22;;;;;;;4.53;1.90;;;;;;;17.91;74.74;100416.59;5022576;28;20256;-75
2023/05/13 11:13:12;;;;;;;2.23;2.03;;;;;;;17.92;76.30;100413.91;5021343;28;20742;-75
2023/05/13 11:15:48;;;;;;;2.47;1.80;;;;;;;17.96;75.49;100414.69;5020646;28;20206;-75
2023/05/13 11:18:14;;;;;;;2.60;1.93;;;;;;;17.93;75.95;100414.78;5000360;28;20218;-75
2023/05/13 11:20:39;;;;;;;2.90;1.60;;;;;;;18.34;75.33;100419.38;5020352;28;20191;-76